Wetterdaten: Woche 12.07.10 - 18.07.10 (KW28)
Datum Zeit Temperatur Luftfeuchte Luftdruck Niederschlag Wind Richtung Sonnenschein Solar Taupunkt Windchill Windben
12.07.2010 00:00 22.5 C 75 % 1016.3 hPa 0.0 l/m 1.1 km/h (0 Bft) SO 0.00 h 0 W/m 17.8 C 22.5 C 2.3 km/h (1 Bft)
12.07.2010 01:00 21.9 C 78 % 1016.0 hPa 0.0 l/m 0.2 km/h (0 Bft) W 0.00 h 0 W/m 17.8 C 21.9 C 0.6 km/h (0 Bft)
12.07.2010 02:00 20.8 C 83 % 1015.5 hPa 0.0 l/m 0.2 km/h (0 Bft) S-SO 0.00 h 0 W/m 17.8 C 20.8 C 0.9 km/h (0 Bft)
12.07.2010 03:00 20.2 C 84 % 1014.9 hPa 0.0 l/m 2.8 km/h (1 Bft) O-SO 0.00 h 0 W/m 17.4 C 20.2 C 4.5 km/h (1 Bft)
12.07.2010 04:00 19.1 C 91 % 1014.5 hPa 0.0 l/m 0.1 km/h (0 Bft) O-SO 0.00 h 0 W/m 17.5 C 19.1 C 0.6 km/h (0 Bft)
12.07.2010 05:00 18.7 C 92 % 1014.1 hPa 0.0 l/m 0.7 km/h (0 Bft) O-SO 0.00 h 8 W/m 17.3 C 18.7 C 1.4 km/h (1 Bft)
12.07.2010 06:00 18.3 C 92 % 1013.7 hPa 0.2 l/m 2.3 km/h (1 Bft) O-SO 0.00 h 22 W/m 16.9 C 18.3 C 3.6 km/h (1 Bft)
12.07.2010 07:00 19.3 C 92 % 1013.7 hPa 0.0 l/m 0.2 km/h (0 Bft) O-SO 0.53 h 137 W/m 17.9 C 19.3 C 0.8 km/h (0 Bft)
12.07.2010 08:00 21.5 C 86 % 1013.5 hPa 0.0 l/m 0.7 km/h (0 Bft) N 0.88 h 312 W/m 19.1 C 21.5 C 2.4 km/h (1 Bft)
12.07.2010 09:00 24.1 C 76 % 1013.5 hPa 0.0 l/m 2.0 km/h (1 Bft) N 1.00 h 497 W/m 19.6 C 24.1 C 4.3 km/h (1 Bft)
12.07.2010 10:00 25.8 C 69 % 1013.5 hPa 0.0 l/m 1.1 km/h (1 Bft) W 1.00 h 635 W/m 19.7 C 25.8 C 3.0 km/h (1 Bft)
12.07.2010 11:00 27.8 C 63 % 1013.2 hPa 0.0 l/m 1.4 km/h (1 Bft) S-SO 1.00 h 685 W/m 20.1 C 27.8 C 3.2 km/h (1 Bft)
12.07.2010 12:00 28.9 C 61 % 1012.8 hPa 0.0 l/m 1.2 km/h (1 Bft) S-SO 1.00 h 666 W/m 20.7 C 28.9 C 2.9 km/h (1 Bft)
12.07.2010 13:00 30.6 C 56 % 1012.1 hPa 0.0 l/m 3.0 km/h (1 Bft) O-SO 1.00 h 818 W/m 20.6 C 30.6 C 5.3 km/h (1 Bft)
12.07.2010 14:00 32.1 C 49 % 1011.0 hPa 0.0 l/m 2.8 km/h (1 Bft) O-SO 1.00 h 805 W/m 20.1 C 32.1 C 5.3 km/h (1 Bft)
12.07.2010 15:00 32.8 C 44 % 1010.4 hPa 0.0 l/m 4.2 km/h (1 Bft) SO 1.00 h 753 W/m 18.9 C 32.8 C 7.2 km/h (2 Bft)
12.07.2010 16:00 32.0 C 44 % 1009.4 hPa 0.0 l/m 3.4 km/h (1 Bft) W 0.40 h 348 W/m 18.3 C 32.0 C 6.3 km/h (2 Bft)
12.07.2010 17:00 28.7 C 51 % 1010.6 hPa 0.0 l/m 11.9 km/h (2 Bft) W-NW 0.20 h 241 W/m 17.4 C 28.7 C 18.9 km/h (3 Bft)
12.07.2010 18:00 24.0 C 62 % 1013.0 hPa 0.0 l/m 22.5 km/h (4 Bft) W 0.00 h 150 W/m 16.3 C 24.0 C 33.4 km/h (5 Bft)
12.07.2010 19:00 22.4 C 64 % 1014.5 hPa 0.2 l/m 11.6 km/h (2 Bft) W 0.00 h 53 W/m 15.3 C 22.4 C 18.7 km/h (3 Bft)
12.07.2010 20:00 18.7 C 90 % 1016.6 hPa 3.0 l/m 6.6 km/h (2 Bft) W 0.00 h 0 W/m 17.0 C 18.7 C 10.7 km/h (2 Bft)
12.07.2010 21:00 18.6 C 92 % 1015.8 hPa 0.0 l/m 4.2 km/h (1 Bft) SO 0.00 h 0 W/m 17.3 C 18.6 C 7.1 km/h (2 Bft)
12.07.2010 22:00 18.2 C 93 % 1015.2 hPa 0.0 l/m 0.4 km/h (0 Bft) S-SO 0.00 h 0 W/m 17.1 C 18.2 C 1.5 km/h (1 Bft)
12.07.2010 23:00 17.9 C 96 % 1015.1 hPa 0.0 l/m 1.3 km/h (1 Bft) O-SO 0.00 h 0 W/m 17.3 C 17.9 C 2.9 km/h (1 Bft)
13.07.2010 00:00 18.0 C 95 % 1014.1 hPa 0.2 l/m 1.7 km/h (1 Bft) SO 0.00 h 0 W/m 17.2 C 18.0 C 3.2 km/h (1 Bft)
13.07.2010 01:00 17.7 C 96 % 1013.1 hPa 0.0 l/m 0.7 km/h (0 Bft) S-SO 0.00 h 0 W/m 17.0 C 17.7 C 2.1 km/h (1 Bft)
13.07.2010 02:00 17.5 C 96 % 1013.1 hPa 0.0 l/m 0.2 km/h (0 Bft) S-SO 0.00 h 0 W/m 16.8 C 17.5 C 0.7 km/h (0 Bft)
13.07.2010 03:00 16.9 C 96 % 1012.6 hPa 0.0 l/m 0.4 km/h (0 Bft) S-SO 0.00 h 0 W/m 16.4 C 16.9 C 1.3 km/h (1 Bft)
13.07.2010 04:00 17.0 C 97 % 1012.1 hPa 0.0 l/m 0.3 km/h (0 Bft) S-SO 0.00 h 0 W/m 16.5 C 17.0 C 1.3 km/h (1 Bft)
13.07.2010 05:00 17.0 C 97 % 1012.4 hPa 0.0 l/m 1.6 km/h (1 Bft) S-SO 0.00 h 7 W/m 16.5 C 17.0 C 3.3 km/h (1 Bft)
13.07.2010 06:00 17.1 C 97 % 1012.9 hPa 0.0 l/m 0.1 km/h (0 Bft) O-SO 0.00 h 23 W/m 16.7 C 17.1 C 0.6 km/h (0 Bft)
13.07.2010 07:00 17.8 C 95 % 1013.3 hPa 0.0 l/m 1.1 km/h (1 Bft) O-SO 0.00 h 59 W/m 17.1 C 17.8 C 2.5 km/h (1 Bft)
13.07.2010 08:00 18.9 C 94 % 1013.4 hPa 0.0 l/m 0.3 km/h (0 Bft) O-SO 0.35 h 234 W/m 17.9 C 18.9 C 1.4 km/h (1 Bft)
13.07.2010 09:00 20.3 C 90 % 1013.3 hPa 0.0 l/m 1.0 km/h (0 Bft) W-NW 0.58 h 344 W/m 18.6 C 20.3 C 2.5 km/h (1 Bft)
13.07.2010 10:00 21.3 C 86 % 1013.3 hPa 0.0 l/m 0.4 km/h (0 Bft) NW 0.37 h 379 W/m 18.9 C 21.3 C 1.6 km/h (1 Bft)
13.07.2010 11:00 24.0 C 77 % 1013.0 hPa 0.0 l/m 1.6 km/h (1 Bft) O-SO 0.90 h 726 W/m 19.8 C 24.0 C 3.6 km/h (1 Bft)
13.07.2010 12:00 25.5 C 69 % 1012.8 hPa 0.0 l/m 6.6 km/h (2 Bft) W 0.95 h 778 W/m 19.4 C 25.5 C 10.7 km/h (2 Bft)
13.07.2010 13:00 26.5 C 64 % 1012.4 hPa 0.0 l/m 7.1 km/h (2 Bft) W 1.00 h 772 W/m 19.0 C 26.5 C 11.0 km/h (2 Bft)
13.07.2010 14:00 27.5 C 58 % 1011.9 hPa 0.0 l/m 7.1 km/h (2 Bft) W 0.93 h 756 W/m 18.5 C 27.5 C 11.5 km/h (2 Bft)
13.07.2010 15:00 28.3 C 57 % 1011.4 hPa 0.0 l/m 3.8 km/h (1 Bft) W-NW 0.90 h 656 W/m 18.8 C 28.3 C 6.5 km/h (2 Bft)
13.07.2010 16:00 28.8 C 55 % 1010.8 hPa 0.0 l/m 2.9 km/h (1 Bft) W-NW 1.00 h 618 W/m 18.8 C 28.8 C 5.2 km/h (1 Bft)
13.07.2010 17:00 29.1 C 54 % 1010.3 hPa 0.0 l/m 1.4 km/h (1 Bft) O-NO 1.00 h 553 W/m 18.7 C 29.1 C 3.3 km/h (1 Bft)
13.07.2010 18:00 28.7 C 53 % 1009.7 hPa 0.0 l/m 1.0 km/h (0 Bft) SO 1.00 h 347 W/m 18.2 C 28.7 C 2.7 km/h (1 Bft)
13.07.2010 19:00 28.3 C 54 % 1009.5 hPa 0.0 l/m 1.0 km/h (0 Bft) O-SO 1.00 h 191 W/m 18.1 C 28.3 C 2.5 km/h (1 Bft)
13.07.2010 20:00 26.9 C 61 % 1009.4 hPa 0.0 l/m 1.4 km/h (1 Bft) O-SO 0.33 h 61 W/m 18.8 C 26.9 C 3.1 km/h (1 Bft)
13.07.2010 21:00 25.0 C 68 % 1009.4 hPa 0.0 l/m 3.4 km/h (1 Bft) O-SO 0.03 h 9 W/m 18.7 C 25.0 C 4.9 km/h (1 Bft)
13.07.2010 22:00 23.4 C 75 % 1009.8 hPa 0.0 l/m 0.4 km/h (0 Bft) O-SO 0.00 h 0 W/m 18.7 C 23.4 C 1.0 km/h (0 Bft)
13.07.2010 23:00 22.3 C 80 % 1009.9 hPa 0.0 l/m 0.0 km/h (0 Bft) O-SO 0.00 h 0 W/m 18.7 C 22.3 C 0.2 km/h (0 Bft)
14.07.2010 00:00 21.6 C 84 % 1010.0 hPa 0.0 l/m 0.4 km/h (0 Bft) O-SO 0.00 h 0 W/m 18.8 C 21.6 C 0.8 km/h (0 Bft)
14.07.2010 01:00 21.2 C 86 % 1010.0 hPa 0.0 l/m 0.5 km/h (0 Bft) O-SO 0.00 h 0 W/m 18.8 C 21.2 C 1.0 km/h (0 Bft)
14.07.2010 02:00 20.6 C 92 % 1010.2 hPa 0.4 l/m 0.3 km/h (0 Bft) O 0.00 h 0 W/m 19.3 C 20.6 C 0.9 km/h (0 Bft)
14.07.2010 03:00 20.0 C 95 % 1010.0 hPa 0.0 l/m 0.1 km/h (0 Bft) O 0.00 h 0 W/m 19.1 C 20.0 C 0.2 km/h (0 Bft)
14.07.2010 04:00 19.5 C 96 % 1009.9 hPa 0.0 l/m 0.0 km/h (0 Bft) N 0.00 h 0 W/m 18.7 C 19.5 C 0.0 km/h (0 Bft)
14.07.2010 05:00 18.9 C 96 % 1009.8 hPa 0.0 l/m 0.0 km/h (0 Bft) N 0.00 h 6 W/m 18.2 C 18.9 C 0.0 km/h (0 Bft)
14.07.2010 06:00 18.8 C 96 % 1010.0 hPa 0.0 l/m 0.0 km/h (0 Bft) N 0.00 h 26 W/m 18.1 C 18.8 C 0.0 km/h (0 Bft)
14.07.2010 07:00 19.9 C 95 % 1009.9 hPa 0.0 l/m 0.0 km/h (0 Bft) N 0.47 h 140 W/m 19.0 C 19.9 C 0.0 km/h (0 Bft)
14.07.2010 08:00 21.6 C 90 % 1009.9 hPa 0.0 l/m 0.0 km/h (0 Bft) N 0.97 h 287 W/m 19.9 C 21.6 C 0.0 km/h (0 Bft)
14.07.2010 09:00 23.9 C 83 % 1009.6 hPa 0.0 l/m 0.0 km/h (0 Bft) N 1.00 h 447 W/m 20.8 C 23.9 C 0.0 km/h (0 Bft)
14.07.2010 10:00 26.2 C 76 % 1009.2 hPa 0.0 l/m 2.4 km/h (1 Bft) NW 1.00 h 605 W/m 21.5 C 26.2 C 4.5 km/h (1 Bft)
14.07.2010 11:00 28.6 C 67 % 1008.4 hPa 0.0 l/m 2.7 km/h (1 Bft) NW 1.00 h 719 W/m 21.8 C 28.6 C 4.7 km/h (1 Bft)
14.07.2010 12:00 30.6 C 56 % 1007.6 hPa 0.0 l/m 3.4 km/h (1 Bft) SO 1.00 h 797 W/m 20.8 C 30.6 C 6.8 km/h (2 Bft)
14.07.2010 13:00 31.8 C 50 % 1007.0 hPa 0.0 l/m 6.6 km/h (2 Bft) O-SO 1.00 h 822 W/m 20.0 C 31.8 C 11.7 km/h (2 Bft)
14.07.2010 14:00 32.8 C 49 % 1006.1 hPa 0.0 l/m 5.4 km/h (1 Bft) O-SO 1.00 h 803 W/m 20.5 C 32.8 C 10.1 km/h (2 Bft)
14.07.2010 15:00 33.3 C 47 % 1005.3 hPa 0.0 l/m 5.7 km/h (1 Bft) O-SO 0.98 h 734 W/m 20.2 C 33.3 C 10.3 km/h (2 Bft)
14.07.2010 16:00 33.6 C 46 % 1004.5 hPa 0.0 l/m 7.5 km/h (2 Bft) O-SO 1.00 h 636 W/m 20.4 C 33.6 C 11.6 km/h (2 Bft)
14.07.2010 17:00 34.0 C 44 % 1003.6 hPa 0.0 l/m 5.1 km/h (1 Bft) O-SO 1.00 h 490 W/m 20.2 C 34.0 C 8.5 km/h (2 Bft)
14.07.2010 18:00 33.4 C 47 % 1003.5 hPa 0.0 l/m 2.4 km/h (1 Bft) O-SO 0.15 h 170 W/m 20.5 C 33.4 C 3.6 km/h (1 Bft)
14.07.2010 19:00 31.0 C 61 % 1003.3 hPa 0.0 l/m 1.2 km/h (1 Bft) O-SO 0.00 h 85 W/m 22.5 C 31.0 C 2.2 km/h (1 Bft)
14.07.2010 20:00 28.2 C 62 % 1004.7 hPa 2.6 l/m 13.4 km/h (3 Bft) SO 0.57 h 67 W/m 19.8 C 28.2 C 21.4 km/h (4 Bft)
14.07.2010 21:00 22.2 C 88 % 1007.5 hPa 0.0 l/m 3.2 km/h (1 Bft) O-SO 0.17 h 21 W/m 20.0 C 22.2 C 5.8 km/h (2 Bft)
14.07.2010 22:00 20.7 C 88 % 1009.3 hPa 2.6 l/m 10.0 km/h (2 Bft) W 0.00 h 0 W/m 18.7 C 20.7 C 15.8 km/h (3 Bft)
14.07.2010 23:00 19.3 C 92 % 1010.4 hPa 0.0 l/m 8.8 km/h (2 Bft) W-NW 0.00 h 0 W/m 18.0 C 19.3 C 14.5 km/h (3 Bft)
15.07.2010 00:00 20.3 C 85 % 1011.0 hPa 0.0 l/m 2.3 km/h (1 Bft) O-SO 0.00 h 0 W/m 17.8 C 20.3 C 4.3 km/h (1 Bft)
15.07.2010 01:00 20.6 C 84 % 1011.4 hPa 0.0 l/m 2.2 km/h (1 Bft) O-SO 0.00 h 0 W/m 17.8 C 20.6 C 4.0 km/h (1 Bft)
15.07.2010 02:00 20.1 C 85 % 1011.6 hPa 0.0 l/m 0.9 km/h (0 Bft) S-SO 0.00 h 0 W/m 17.6 C 20.1 C 2.6 km/h (1 Bft)
15.07.2010 03:00 20.0 C 86 % 1011.6 hPa 0.0 l/m 1.0 km/h (0 Bft) W-SW 0.00 h 0 W/m 17.5 C 20.0 C 2.8 km/h (1 Bft)
15.07.2010 04:00 19.8 C 85 % 1012.1 hPa 0.0 l/m 1.2 km/h (1 Bft) W-SW 0.00 h 0 W/m 17.1 C 19.8 C 2.9 km/h (1 Bft)
15.07.2010 05:00 19.5 C 85 % 1012.5 hPa 0.0 l/m 0.6 km/h (0 Bft) W-SW 0.00 h 0 W/m 16.8 C 19.5 C 2.1 km/h (1 Bft)
15.07.2010 06:00 19.4 C 87 % 1013.1 hPa 0.4 l/m 0.6 km/h (0 Bft) O-SO 0.00 h 19 W/m 17.2 C 19.4 C 1.3 km/h (1 Bft)
15.07.2010 07:00 19.6 C 91 % 1013.9 hPa 0.0 l/m 0.3 km/h (0 Bft) S-SW 0.10 h 93 W/m 18.1 C 19.6 C 1.1 km/h (1 Bft)
15.07.2010 08:00 20.0 C 82 % 1015.0 hPa 0.0 l/m 6.7 km/h (2 Bft) W 0.07 h 164 W/m 16.8 C 20.0 C 10.6 km/h (2 Bft)
15.07.2010 09:00 20.5 C 74 % 1015.5 hPa 0.0 l/m 6.0 km/h (2 Bft) W 0.00 h 216 W/m 15.6 C 20.5 C 9.7 km/h (2 Bft)
15.07.2010 10:00 21.0 C 76 % 1015.7 hPa 0.0 l/m 3.6 km/h (1 Bft) W 0.00 h 259 W/m 16.5 C 21.0 C 6.2 km/h (2 Bft)
15.07.2010 11:00 21.8 C 71 % 1015.8 hPa 0.0 l/m 4.4 km/h (1 Bft) W 0.28 h 437 W/m 16.3 C 21.8 C 7.8 km/h (2 Bft)
15.07.2010 12:00 24.5 C 63 % 1015.1 hPa 0.0 l/m 3.0 km/h (1 Bft) W-SW 0.83 h 784 W/m 16.9 C 24.5 C 5.4 km/h (1 Bft)
15.07.2010 13:00 25.2 C 60 % 1014.8 hPa 0.0 l/m 3.9 km/h (1 Bft) W 0.75 h 753 W/m 16.9 C 25.2 C 6.5 km/h (2 Bft)
15.07.2010 14:00 25.8 C 59 % 1014.4 hPa 0.0 l/m 4.7 km/h (1 Bft) W-NW 0.60 h 691 W/m 17.2 C 25.8 C 7.6 km/h (2 Bft)
15.07.2010 15:00 26.5 C 58 % 1014.3 hPa 0.0 l/m 4.0 km/h (1 Bft) W 0.57 h 652 W/m 17.5 C 26.5 C 6.6 km/h (2 Bft)
15.07.2010 16:00 25.5 C 62 % 1014.3 hPa 0.0 l/m 1.5 km/h (1 Bft) W-NW 0.32 h 414 W/m 17.7 C 25.5 C 3.6 km/h (1 Bft)
15.07.2010 17:00 25.6 C 61 % 1014.0 hPa 0.0 l/m 2.0 km/h (1 Bft) O-SO 0.45 h 340 W/m 17.4 C 25.6 C 4.1 km/h (1 Bft)
15.07.2010 18:00 25.4 C 61 % 1013.8 hPa 0.0 l/m 2.3 km/h (1 Bft) O-SO 0.37 h 218 W/m 17.3 C 25.4 C 3.9 km/h (1 Bft)
15.07.2010 19:00 25.3 C 60 % 1013.4 hPa 0.0 l/m 0.5 km/h (0 Bft) O-SO 0.85 h 175 W/m 17.0 C 25.3 C 1.7 km/h (1 Bft)
15.07.2010 20:00 24.5 C 68 % 1013.5 hPa 0.0 l/m 0.2 km/h (0 Bft) O-SO 0.35 h 62 W/m 18.1 C 24.5 C 1.2 km/h (1 Bft)
15.07.2010 21:00 22.5 C 75 % 1014.0 hPa 0.0 l/m 1.0 km/h (0 Bft) SO 0.05 h 9 W/m 17.9 C 22.5 C 1.9 km/h (1 Bft)
15.07.2010 22:00 20.8 C 83 % 1014.6 hPa 0.0 l/m 2.3 km/h (1 Bft) SO 0.00 h 0 W/m 17.8 C 20.8 C 3.5 km/h (1 Bft)
15.07.2010 23:00 19.9 C 85 % 1014.9 hPa 0.0 l/m 0.7 km/h (0 Bft) O 0.00 h 0 W/m 17.4 C 19.9 C 1.8 km/h (1 Bft)
16.07.2010 00:00 19.2 C 87 % 1015.1 hPa 0.0 l/m 0.2 km/h (0 Bft) O 0.00 h 0 W/m 16.9 C 19.2 C 1.0 km/h (0 Bft)
16.07.2010 01:00 18.4 C 88 % 1014.9 hPa 0.0 l/m 0.4 km/h (0 Bft) O 0.00 h 0 W/m 16.4 C 18.4 C 1.2 km/h (1 Bft)
16.07.2010 02:00 17.7 C 90 % 1014.6 hPa 0.0 l/m 0.6 km/h (0 Bft) O 0.00 h 0 W/m 16.0 C 17.7 C 2.0 km/h (1 Bft)
16.07.2010 03:00 17.1 C 91 % 1014.6 hPa 0.0 l/m 0.4 km/h (0 Bft) O 0.00 h 0 W/m 15.6 C 17.1 C 1.1 km/h (0 Bft)
16.07.2010 04:00 16.5 C 93 % 1014.7 hPa 0.0 l/m 0.1 km/h (0 Bft) O 0.00 h 0 W/m 15.3 C 16.5 C 0.8 km/h (0 Bft)
16.07.2010 05:00 16.1 C 94 % 1014.9 hPa 0.0 l/m 0.7 km/h (0 Bft) O 0.00 h 6 W/m 15.1 C 16.1 C 1.7 km/h (1 Bft)
16.07.2010 06:00 16.1 C 94 % 1015.3 hPa 0.0 l/m 1.1 km/h (0 Bft) O 0.00 h 20 W/m 15.1 C 16.1 C 2.3 km/h (1 Bft)
16.07.2010 07:00 17.4 C 92 % 1015.4 hPa 0.0 l/m 0.3 km/h (0 Bft) O 0.77 h 146 W/m 16.0 C 17.4 C 0.8 km/h (0 Bft)
16.07.2010 08:00 19.9 C 85 % 1015.4 hPa 0.0 l/m 0.7 km/h (0 Bft) N-NO 1.00 h 314 W/m 17.2 C 19.9 C 2.2 km/h (1 Bft)
16.07.2010 09:00 22.1 C 79 % 1015.5 hPa 0.0 l/m 0.7 km/h (0 Bft) N-NW 1.00 h 475 W/m 18.2 C 22.1 C 2.3 km/h (1 Bft)
16.07.2010 10:00 24.7 C 72 % 1015.0 hPa 0.0 l/m 1.6 km/h (1 Bft) NW 1.00 h 630 W/m 19.4 C 24.7 C 3.5 km/h (1 Bft)
16.07.2010 11:00 26.4 C 67 % 1014.6 hPa 0.0 l/m 2.2 km/h (1 Bft) W-NW 0.78 h 615 W/m 19.8 C 26.4 C 4.1 km/h (1 Bft)
16.07.2010 12:00 28.0 C 61 % 1014.3 hPa 0.0 l/m 2.6 km/h (1 Bft) W-NW 0.83 h 764 W/m 19.7 C 28.0 C 4.6 km/h (1 Bft)
16.07.2010 13:00 30.2 C 45 % 1013.9 hPa 0.0 l/m 3.0 km/h (1 Bft) W-NW 1.00 h 868 W/m 17.0 C 30.2 C 5.4 km/h (1 Bft)
16.07.2010 14:00 30.2 C 45 % 1013.7 hPa 0.0 l/m 2.2 km/h (1 Bft) NW 0.73 h 635 W/m 16.8 C 30.2 C 4.1 km/h (1 Bft)
16.07.2010 15:00 31.5 C 42 % 1013.2 hPa 0.0 l/m 1.2 km/h (1 Bft) O 0.90 h 725 W/m 17.1 C 31.5 C 3.3 km/h (1 Bft)
16.07.2010 16:00 32.0 C 43 % 1013.0 hPa 0.0 l/m 1.5 km/h (1 Bft) W-NW 0.63 h 502 W/m 17.7 C 32.0 C 3.3 km/h (1 Bft)
16.07.2010 17:00 30.7 C 47 % 1012.8 hPa 0.0 l/m 0.7 km/h (0 Bft) SO 0.10 h 238 W/m 17.9 C 30.7 C 2.3 km/h (1 Bft)
16.07.2010 18:00 28.8 C 56 % 1012.8 hPa 0.0 l/m 1.4 km/h (1 Bft) W 0.00 h 92 W/m 19.1 C 28.8 C 3.6 km/h (1 Bft)
16.07.2010 19:00 28.3 C 55 % 1013.0 hPa 0.0 l/m 0.7 km/h (0 Bft) W-SW 0.00 h 46 W/m 18.3 C 28.3 C 2.2 km/h (1 Bft)
16.07.2010 20:00 28.1 C 56 % 1013.1 hPa 0.0 l/m 1.3 km/h (1 Bft) O 0.20 h 44 W/m 18.5 C 28.1 C 2.4 km/h (1 Bft)
16.07.2010 21:00 26.6 C 61 % 1013.6 hPa 0.0 l/m 1.9 km/h (1 Bft) O-SO 0.03 h 9 W/m 18.5 C 26.6 C 3.7 km/h (1 Bft)
16.07.2010 22:00 22.7 C 70 % 1015.9 hPa 1.2 l/m 8.4 km/h (2 Bft) O-SO 0.00 h 0 W/m 16.5 C 22.7 C 12.7 km/h (3 Bft)
16.07.2010 23:00 20.1 C 89 % 1017.2 hPa 0.0 l/m 3.8 km/h (1 Bft) O-SO 0.00 h 0 W/m 18.1 C 20.1 C 5.9 km/h (2 Bft)
17.07.2010 00:00 19.9 C 93 % 1017.0 hPa 0.2 l/m 0.4 km/h (0 Bft) O 0.00 h 0 W/m 18.7 C 19.9 C 1.2 km/h (1 Bft)
17.07.2010 01:00 19.7 C 94 % 1016.6 hPa 0.0 l/m 1.2 km/h (1 Bft) O-SO 0.00 h 0 W/m 18.7 C 19.7 C 1.9 km/h (1 Bft)
17.07.2010 02:00 19.4 C 94 % 1016.4 hPa 0.0 l/m 0.1 km/h (0 Bft) O-NO 0.00 h 0 W/m 18.4 C 19.4 C 0.9 km/h (0 Bft)
17.07.2010 03:00 19.1 C 95 % 1015.9 hPa 0.2 l/m 0.6 km/h (0 Bft) O-NO 0.00 h 0 W/m 18.3 C 19.1 C 1.4 km/h (1 Bft)
17.07.2010 04:00 18.9 C 94 % 1015.7 hPa 0.0 l/m 0.8 km/h (0 Bft) O-SO 0.00 h 0 W/m 17.9 C 18.9 C 1.9 km/h (1 Bft)
17.07.2010 05:00 18.5 C 95 % 1015.8 hPa 0.0 l/m 0.2 km/h (0 Bft) NO 0.00 h 5 W/m 17.7 C 18.5 C 0.9 km/h (0 Bft)
17.07.2010 06:00 18.2 C 97 % 1015.9 hPa 0.0 l/m 0.0 km/h (0 Bft) N 0.00 h 32 W/m 17.7 C 18.2 C 0.3 km/h (0 Bft)
17.07.2010 07:00 19.4 C 95 % 1016.6 hPa 0.0 l/m 0.0 km/h (0 Bft) N 0.58 h 140 W/m 18.5 C 19.4 C 0.1 km/h (0 Bft)
17.07.2010 08:00 20.0 C 89 % 1017.0 hPa 0.0 l/m 4.7 km/h (1 Bft) W 0.30 h 205 W/m 18.1 C 20.0 C 8.8 km/h (2 Bft)
17.07.2010 09:00 21.4 C 78 % 1017.8 hPa 0.0 l/m 2.9 km/h (1 Bft) W 0.30 h 301 W/m 17.5 C 21.4 C 5.7 km/h (1 Bft)
17.07.2010 10:00 23.8 C 72 % 1018.2 hPa 0.0 l/m 3.4 km/h (1 Bft) W 0.93 h 595 W/m 18.5 C 23.8 C 6.5 km/h (2 Bft)
17.07.2010 11:00 24.1 C 70 % 1018.2 hPa 0.0 l/m 5.6 km/h (1 Bft) W 0.43 h 453 W/m 18.4 C 24.1 C 9.5 km/h (2 Bft)
17.07.2010 12:00 22.3 C 75 % 1018.6 hPa 0.2 l/m 10.8 km/h (2 Bft) W 0.03 h 289 W/m 17.7 C 22.3 C 16.8 km/h (3 Bft)
17.07.2010 13:00 21.6 C 81 % 1019.0 hPa 0.0 l/m 11.5 km/h (2 Bft) W 0.22 h 428 W/m 18.2 C 21.6 C 18.9 km/h (3 Bft)
17.07.2010 14:00 19.2 C 82 % 1019.5 hPa 0.2 l/m 12.2 km/h (2 Bft) W 0.00 h 95 W/m 16.0 C 19.2 C 20.2 km/h (4 Bft)
17.07.2010 15:00 17.3 C 83 % 1020.5 hPa 0.2 l/m 10.0 km/h (2 Bft) W 0.00 h 90 W/m 14.4 C 17.3 C 16.4 km/h (3 Bft)
17.07.2010 16:00 15.9 C 91 % 1020.8 hPa 2.0 l/m 8.7 km/h (2 Bft) W 0.00 h 109 W/m 14.4 C 15.9 C 14.8 km/h (3 Bft)
17.07.2010 17:00 16.1 C 93 % 1021.0 hPa 3.6 l/m 5.7 km/h (1 Bft) W 0.00 h 69 W/m 14.9 C 16.1 C 10.1 km/h (2 Bft)
17.07.2010 18:00 16.7 C 94 % 1020.7 hPa 0.0 l/m 0.6 km/h (0 Bft) W 0.00 h 93 W/m 15.7 C 16.7 C 2.6 km/h (1 Bft)
17.07.2010 19:00 17.3 C 92 % 1021.2 hPa 0.0 l/m 0.8 km/h (0 Bft) O-SO 0.00 h 30 W/m 16.0 C 17.3 C 1.7 km/h (1 Bft)
17.07.2010 20:00 17.2 C 94 % 1021.9 hPa 0.0 l/m 1.0 km/h (0 Bft) O-SO 0.00 h 35 W/m 16.2 C 17.2 C 2.3 km/h (1 Bft)
17.07.2010 21:00 17.2 C 92 % 1022.7 hPa 0.0 l/m 3.1 km/h (1 Bft) O-SO 0.00 h 0 W/m 15.8 C 17.2 C 4.8 km/h (1 Bft)
17.07.2010 22:00 17.0 C 92 % 1023.5 hPa 0.0 l/m 2.0 km/h (1 Bft) O-SO 0.00 h 0 W/m 15.7 C 17.0 C 3.7 km/h (1 Bft)
17.07.2010 23:00 16.8 C 95 % 1024.1 hPa 0.0 l/m 0.1 km/h (0 Bft) O-SO 0.00 h 0 W/m 16.0 C 16.8 C 0.7 km/h (0 Bft)
18.07.2010 00:00 16.8 C 95 % 1024.8 hPa 0.0 l/m 0.6 km/h (0 Bft) O-SO 0.00 h 0 W/m 16.0 C 16.8 C 1.6 km/h (1 Bft)
18.07.2010 01:00 16.7 C 95 % 1025.0 hPa 0.0 l/m 0.9 km/h (0 Bft) O-SO 0.00 h 0 W/m 15.8 C 16.7 C 2.3 km/h (1 Bft)
18.07.2010 02:00 16.2 C 94 % 1025.0 hPa 0.0 l/m 0.6 km/h (0 Bft) S-SW 0.00 h 0 W/m 15.2 C 16.2 C 1.6 km/h (1 Bft)
18.07.2010 03:00 16.1 C 95 % 1025.0 hPa 0.0 l/m 2.4 km/h (1 Bft) O-SO 0.00 h 0 W/m 15.3 C 16.1 C 3.9 km/h (1 Bft)
18.07.2010 04:00 16.1 C 96 % 1024.7 hPa 0.0 l/m 0.3 km/h (0 Bft) O-SO 0.00 h 0 W/m 15.4 C 16.1 C 0.8 km/h (0 Bft)
18.07.2010 05:00 16.0 C 97 % 1024.7 hPa 0.0 l/m 0.1 km/h (0 Bft) O-SO 0.00 h 0 W/m 15.5 C 16.0 C 0.3 km/h (0 Bft)
18.07.2010 06:00 16.1 C 96 % 1024.9 hPa 0.0 l/m 0.1 km/h (0 Bft) O-SO 0.00 h 24 W/m 15.5 C 16.1 C 0.4 km/h (0 Bft)
18.07.2010 07:00 16.6 C 94 % 1025.2 hPa 0.0 l/m 0.2 km/h (0 Bft) N-NO 0.15 h 107 W/m 15.6 C 16.6 C 0.8 km/h (0 Bft)
18.07.2010 08:00 17.9 C 83 % 1025.6 hPa 0.0 l/m 2.3 km/h (1 Bft) N-NO 0.68 h 302 W/m 15.0 C 17.9 C 5.2 km/h (1 Bft)
18.07.2010 09:00 18.8 C 77 % 1025.6 hPa 0.0 l/m 3.1 km/h (1 Bft) N 0.67 h 407 W/m 14.7 C 18.8 C 6.3 km/h (2 Bft)
18.07.2010 10:00 20.7 C 71 % 1025.3 hPa 0.0 l/m 3.1 km/h (1 Bft) N-NO 0.87 h 595 W/m 15.2 C 20.7 C 6.1 km/h (2 Bft)
18.07.2010 11:00 22.2 C 61 % 1025.2 hPa 0.0 l/m 4.7 km/h (1 Bft) O 0.98 h 829 W/m 14.4 C 22.2 C 9.4 km/h (2 Bft)
18.07.2010 12:00 21.6 C 64 % 1024.9 hPa 0.0 l/m 3.2 km/h (1 Bft) N-NW 0.25 h 365 W/m 14.4 C 21.6 C 6.2 km/h (2 Bft)
18.07.2010 13:00 23.6 C 59 % 1024.6 hPa 0.0 l/m 5.5 km/h (1 Bft) N 0.83 h 872 W/m 15.0 C 23.6 C 10.2 km/h (2 Bft)
18.07.2010 14:00 23.6 C 57 % 1024.0 hPa 0.0 l/m 3.5 km/h (1 Bft) O 0.68 h 685 W/m 14.4 C 23.6 C 6.8 km/h (2 Bft)
18.07.2010 15:00 24.4 C 49 % 1023.4 hPa 0.0 l/m 4.3 km/h (1 Bft) NO 1.00 h 802 W/m 13.1 C 24.4 C 8.6 km/h (2 Bft)
18.07.2010 16:00 25.0 C 47 % 1022.9 hPa 0.0 l/m 5.2 km/h (1 Bft) O-SO 0.90 h 638 W/m 12.9 C 25.0 C 9.9 km/h (2 Bft)
18.07.2010 17:00 25.1 C 45 % 1022.5 hPa 0.0 l/m 6.5 km/h (2 Bft) O-SO 0.95 h 522 W/m 12.4 C 25.1 C 11.5 km/h (2 Bft)
18.07.2010 18:00 24.7 C 45 % 1021.9 hPa 0.0 l/m 4.6 km/h (1 Bft) O-SO 1.00 h 375 W/m 12.1 C 24.7 C 8.9 km/h (2 Bft)
18.07.2010 19:00 24.2 C 46 % 1021.4 hPa 0.0 l/m 3.9 km/h (1 Bft) O-SO 1.00 h 197 W/m 12.0 C 24.2 C 7.5 km/h (2 Bft)
18.07.2010 20:00 23.1 C 50 % 1021.3 hPa 0.0 l/m 1.3 km/h (1 Bft) O-SO 0.48 h 62 W/m 12.0 C 23.1 C 3.7 km/h (1 Bft)
18.07.2010 21:00 21.0 C 59 % 1021.4 hPa 0.0 l/m 0.6 km/h (0 Bft) N-NO 0.03 h 8 W/m 12.7 C 21.0 C 2.2 km/h (1 Bft)
18.07.2010 22:00 18.8 C 69 % 1021.9 hPa 0.0 l/m 0.6 km/h (0 Bft) NO 0.00 h 0 W/m 13.0 C 18.8 C 1.7 km/h (1 Bft)
18.07.2010 23:00 17.4 C 77 % 1021.9 hPa 0.0 l/m 0.1 km/h (0 Bft) N 0.00 h 0 W/m 13.3 C 17.4 C 0.7 km/h (0 Bft)
Min-Datum _ 17.07.10 16.07.10 14.07.10 - 12.07.10 - - - 18.07.10 17.07.10 12.07.10
_ Min-Zeit 16:15 16:04 19:15 - 00:02 - - - 18:36 16:15 00:02
Minimum _ 15.2 C 37 % 1003.0 hPa - 0.0 km/h (0 Bft) - - - 11.0 C 15.2 C 0.0 km/h (0 Bft)
Max-Datum _ 14.07.10 13.07.10 18.07.10 17.07.10 12.07.10 - 12.07.10 18.07.10 14.07.10 14.07.10 12.07.10
_ Max-Zeit 17:44 06:00 09:00 17:43 18:19 - 07:12 12:49 20:09 17:44 18:18
Maximum _ 34.3 C 98 % 1025.8 hPa 3.6 l/m 39.3 km/h
W (6 Bft)
- 0.02 h 1195 W/m 23.7 C 34.3 C 55.6 km/h
W (7 Bft)
Durchschnitt _ 22.4 C 76 % 1014.9 hPa #17.4 l/m 2.7 km/h (1 Bft) O-SO #58:31 h 357 W/m 17.4 C 22.4 C 4.9 km/h (1 Bft)
© Kaiko 2010